Time;durP1;ratioP1;P1;durP2;ratioP2;P2;SDS_P1;SDS_P2;PMS_P1;PMS_P2;Temp;Humidity;BMP_temperature;BMP_pressure;BME280_temperature;BME280_humidity;BME280_pressure;Samples;Min_cycle;Max_cycle;Signal;HPM_P1;HPM_P2
2023/05/11 00:02:16;;;;;;;3.83;2.67;;;;;;;10.06;100.00;100264.97;5045664;28;20210;-72
2023/05/11 00:04:42;;;;;;;3.77;2.80;;;;;;;10.17;100.00;100265.97;5045501;28;20232;-70
2023/05/11 00:07:09;;;;;;;3.20;2.47;;;;;;;10.25;100.00;100269.66;5043451;28;20241;-71
2023/05/11 00:09:37;;;;;;;2.73;2.30;;;;;;;10.32;100.00;100270.59;5050721;28;20221;-70
2023/05/11 00:12:04;;;;;;;4.43;2.20;;;;;;;10.37;100.00;100268.91;5044615;28;20222;-70
2023/05/11 00:14:30;;;;;;;4.53;2.27;;;;;;;10.43;100.00;100271.66;5042268;28;20200;-72
2023/05/11 00:16:57;;;;;;;3.10;2.40;;;;;;;10.46;100.00;100265.50;5044681;28;20203;-70
2023/05/11 00:19:23;;;;;;;3.33;2.30;;;;;;;10.48;100.00;100250.53;5049309;28;20269;-70
2023/05/11 00:21:50;;;;;;;5.37;2.60;;;;;;;10.50;100.00;100257.59;5039658;28;20714;-73
2023/05/11 00:24:16;;;;;;;3.87;2.50;;;;;;;10.51;100.00;100256.75;5038419;28;20683;-71
2023/05/11 00:26:42;;;;;;;3.10;2.50;;;;;;;10.57;100.00;100255.91;5047990;28;20199;-69
2023/05/11 00:29:09;;;;;;;3.57;2.43;;;;;;;10.58;100.00;100261.22;5050783;28;20191;-69
2023/05/11 00:31:36;;;;;;;3.00;2.13;;;;;;;10.59;100.00;100257.69;5040672;28;20260;-71
2023/05/11 00:34:02;;;;;;;4.90;2.50;;;;;;;10.60;100.00;100256.84;5038635;28;20214;-70
2023/05/11 00:36:29;;;;;;;5.07;2.50;;;;;;;10.63;100.00;100254.22;5041756;28;20204;-68
2023/05/11 00:38:55;;;;;;;4.80;2.63;;;;;;;10.71;100.00;100258.69;5038190;28;20219;-70
2023/05/11 00:41:22;;;;;;;2.67;2.10;;;;;;;10.73;100.00;100254.31;5023145;28;20222;-70
2023/05/11 00:43:48;;;;;;;2.63;2.10;;;;;;;10.76;100.00;100257.00;5046569;28;20501;-70
2023/05/11 00:46:14;;;;;;;3.10;2.20;;;;;;;10.81;100.00;100250.88;5044355;28;20225;-72
2023/05/11 00:48:41;;;;;;;5.30;2.10;;;;;;;10.81;100.00;100255.31;5042077;28;20207;-70
2023/05/11 00:51:07;;;;;;;2.67;1.90;;;;;;;10.81;100.00;100250.88;5044574;28;20233;-69
2023/05/11 00:53:34;;;;;;;3.77;1.60;;;;;;;10.78;100.00;100245.53;5046388;28;20241;-69
2023/05/11 00:56:00;;;;;;;2.27;2.07;;;;;;;10.74;100.00;100248.13;5045167;28;20342;-69
2023/05/11 00:58:27;;;;;;;2.80;1.97;;;;;;;10.65;100.00;100247.16;5046156;28;20203;-71
2023/05/11 01:00:53;;;;;;;2.90;1.90;;;;;;;10.55;100.00;100247.94;5043736;28;20254;-70
2023/05/11 01:03:20;;;;;;;4.77;2.00;;;;;;;10.59;100.00;100241.81;5042919;28;20212;-70
2023/05/11 01:06:00;;;;;;;4.03;2.07;;;;;;;10.44;100.00;100236.38;5041206;28;20192;-70
2023/05/11 01:08:38;;;;;;;2.83;2.00;;;;;;;10.37;100.00;100247.72;5038472;28;20661;-70
2023/05/11 01:11:22;;;;;;;3.83;2.00;;;;;;;10.21;100.00;100246.66;5036822;28;20448;-69
2023/05/11 01:13:58;;;;;;;3.03;2.00;;;;;;;10.05;100.00;100250.84;5043379;28;20193;-72
2023/05/11 01:16:28;;;;;;;2.03;1.83;;;;;;;9.92;100.00;100242.72;5041616;28;20228;-70
2023/05/11 01:19:17;;;;;;;2.63;2.10;;;;;;;9.79;100.00;100241.66;5041270;28;20245;-71
2023/05/11 01:21:45;;;;;;;4.77;2.10;;;;;;;9.66;100.00;100245.88;5042508;28;20222;-72
2023/05/11 01:24:18;;;;;;;2.20;2.00;;;;;;;9.57;100.00;100247.47;5042169;28;20723;-74
2023/05/11 01:27:30;;;;;;;2.23;2.00;;;;;;;9.53;100.00;100249.19;5042421;28;20700;-74
2023/05/11 01:30:27;;;;;;;3.40;2.10;;;;;;;9.54;100.00;100244.78;5047439;28;20213;-77
2023/05/11 01:32:57;;;;;;;10.60;2.47;;;;;;;9.53;100.00;100241.25;5043523;28;20198;-78
2023/05/11 01:35:25;;;;;;;3.50;2.50;;;;;;;9.48;100.00;100248.25;5043786;28;20671;-78
2023/05/11 01:37:56;;;;;;;3.13;2.33;;;;;;;9.48;100.00;100242.06;5039300;28;20936;-76
2023/05/11 01:40:26;;;;;;;3.63;2.47;;;;;;;9.42;100.00;100246.41;5041485;28;20254;-77
2023/05/11 01:43:00;;;;;;;4.90;2.63;;;;;;;9.34;100.00;100247.16;5046344;28;20749;-76
2023/05/11 01:45:28;;;;;;;3.07;2.40;;;;;;;9.33;100.00;100250.66;5045215;28;20274;-77
2023/05/11 01:47:56;;;;;;;3.37;2.27;;;;;;;9.27;100.00;100253.19;5046992;28;20283;-75
2023/05/11 01:50:24;;;;;;;4.43;2.33;;;;;;;9.20;100.00;100251.28;5044516;28;20211;-73
2023/05/11 01:52:52;;;;;;;5.60;3.50;;;;;;;9.11;100.00;100241.47;5047297;28;20205;-69
2023/05/11 01:55:21;;;;;;;3.07;2.37;;;;;;;9.16;100.00;100245.06;5041553;28;20201;-68
2023/05/11 01:57:51;;;;;;;4.87;2.37;;;;;;;9.12;100.00;100248.53;5038621;28;20557;-68
2023/05/11 02:00:18;;;;;;;6.13;2.30;;;;;;;9.25;100.00;100253.19;5040810;28;20287;-68
2023/05/11 02:02:46;;;;;;;3.50;2.33;;;;;;;9.13;100.00;100250.31;5046971;28;20303;-70
2023/05/11 02:05:20;;;;;;;4.17;2.43;;;;;;;9.09;100.00;100248.47;5033055;28;20207;-68
2023/05/11 02:07:49;;;;;;;6.27;2.20;;;;;;;9.01;100.00;100264.22;5037549;28;20250;-71
2023/05/11 02:10:21;;;;;;;4.33;2.37;;;;;;;9.00;100.00;100253.63;5046031;28;20226;-68
2023/05/11 02:12:51;;;;;;;4.60;2.63;;;;;;;8.93;100.00;100262.28;5044529;28;20248;-68
2023/05/11 02:15:20;;;;;;;3.90;2.33;;;;;;;9.10;100.00;100271.41;5043348;28;20718;-68
2023/05/11 02:17:46;;;;;;;3.30;2.10;;;;;;;9.03;100.00;100266.88;5047925;28;20208;-68
2023/05/11 02:20:14;;;;;;;4.10;2.07;;;;;;;9.09;100.00;100266.97;5052006;28;20714;-70
2023/05/11 02:22:42;;;;;;;3.63;2.20;;;;;;;9.13;100.00;100267.91;5046379;28;20220;-68
2023/05/11 02:25:11;;;;;;;3.33;2.40;;;;;;;9.13;100.00;100270.56;5047439;28;20225;-68
2023/05/11 02:27:37;;;;;;;3.27;2.00;;;;;;;9.18;100.00;100259.19;5047329;28;20230;-69
2023/05/11 02:30:07;;;;;;;2.93;1.83;;;;;;;9.20;100.00;100262.75;5050438;28;20223;-69
2023/05/11 02:32:36;;;;;;;3.87;2.20;;;;;;;9.20;100.00;100257.47;5015176;28;20191;-69
2023/05/11 02:35:24;;;;;;;2.57;1.90;;;;;;;9.11;100.00;100258.22;5044258;28;20203;-70
2023/05/11 02:37:54;;;;;;;5.37;2.17;;;;;;;9.15;100.00;100268.81;5031830;28;20619;-71
2023/05/11 02:40:27;;;;;;;4.47;2.00;;;;;;;9.07;100.00;100266.06;5051267;28;20276;-69
2023/05/11 02:42:58;;;;;;;4.90;2.00;;;;;;;9.13;100.00;100263.53;5042151;28;20222;-68
2023/05/11 02:45:30;;;;;;;2.93;2.00;;;;;;;9.10;100.00;100269.63;5040122;28;20652;-68
2023/05/11 02:47:57;;;;;;;3.27;2.10;;;;;;;9.10;100.00;100263.47;5043985;28;20199;-68
2023/05/11 02:50:27;;;;;;;4.83;2.20;;;;;;;9.22;100.00;100258.41;5047045;28;20694;-69
2023/05/11 02:52:55;;;;;;;2.33;1.97;;;;;;;9.15;100.00;100260.91;5047286;28;20677;-69
2023/05/11 02:55:22;;;;;;;3.40;2.30;;;;;;;9.04;100.00;100260.72;5048622;28;20271;-68
2023/05/11 02:57:49;;;;;;;5.43;2.10;;;;;;;8.94;100.00;100261.44;5040881;28;20199;-68
2023/05/11 03:00:16;;;;;;;3.27;2.17;;;;;;;8.84;100.00;100262.13;5041698;28;20635;-70
2023/05/11 03:02:43;;;;;;;3.43;1.87;;;;;;;8.77;100.00;100261.09;5042778;28;20270;-69
2023/05/11 03:05:09;;;;;;;4.40;2.20;;;;;;;8.77;100.00;100261.09;5048471;28;20543;-70
2023/05/11 03:07:36;;;;;;;5.30;2.20;;;;;;;8.71;100.00;100259.25;5047560;28;20198;-70
2023/05/11 03:10:03;;;;;;;4.23;2.40;;;;;;;8.71;100.00;100258.34;5049615;28;20236;-71
2023/05/11 03:12:32;;;;;;;5.47;2.47;;;;;;;8.82;100.00;100261.22;5043306;28;20216;-68
2023/05/11 03:14:59;;;;;;;4.47;2.77;;;;;;;8.79;100.00;100260.28;5025169;28;20196;-70
2023/05/11 03:17:28;;;;;;;4.50;2.00;;;;;;;8.76;100.00;100256.69;5043283;28;20224;-68
2023/05/11 03:19:56;;;;;;;4.80;2.63;;;;;;;8.85;100.00;100262.16;5047603;28;20234;-69
2023/05/11 03:22:24;;;;;;;5.73;2.70;;;;;;;8.87;100.00;100264.84;5039305;28;20195;-71
2023/05/11 03:24:53;;;;;;;6.37;2.47;;;;;;;8.82;100.00;100264.75;5044077;28;20235;-71
2023/05/11 03:27:20;;;;;;;3.90;2.40;;;;;;;8.83;100.00;100269.19;5047545;28;20219;-69
2023/05/11 03:29:48;;;;;;;5.27;2.30;;;;;;;9.06;100.00;100269.56;5038267;28;20280;-68
2023/05/11 03:32:14;;;;;;;3.00;2.17;;;;;;;9.05;100.00;100262.50;5044606;28;20245;-68
2023/05/11 03:34:41;;;;;;;2.73;2.40;;;;;;;9.10;100.00;100268.75;5045547;28;20200;-70
2023/05/11 03:37:12;;;;;;;4.80;2.33;;;;;;;9.28;100.00;100261.16;5041257;28;20646;-72
2023/05/11 03:39:40;;;;;;;3.70;2.47;;;;;;;9.30;100.00;100255.91;5050082;28;20227;-68
2023/05/11 03:42:07;;;;;;;4.50;2.47;;;;;;;9.34;100.00;100263.00;5044271;28;20676;-67
2023/05/11 03:44:35;;;;;;;4.07;2.83;;;;;;;9.23;100.00;100254.91;5047491;28;20248;-71
2023/05/11 03:47:03;;;;;;;4.23;2.93;;;;;;;9.26;100.00;100259.34;5035434;28;20203;-68
2023/05/11 03:49:29;;;;;;;4.67;2.70;;;;;;;9.19;100.00;100265.38;5042092;28;20226;-68
2023/05/11 03:51:56;;;;;;;2.67;2.30;;;;;;;9.18;100.00;100256.56;5048756;28;22034;-69
2023/05/11 03:54:22;;;;;;;6.53;2.60;;;;;;;9.15;100.00;100256.50;5046372;28;20242;-69
2023/05/11 03:56:50;;;;;;;5.50;2.47;;;;;;;9.11;100.00;100270.53;5044948;28;20232;-69
2023/05/11 03:59:17;;;;;;;3.90;2.40;;;;;;;9.07;100.00;100261.66;5028723;28;20229;-70
2023/05/11 04:01:44;;;;;;;4.50;2.47;;;;;;;9.05;100.00;100263.41;5046235;28;20204;-68
2023/05/11 04:04:10;;;;;;;3.20;2.33;;;;;;;9.05;100.00;100259.84;5046350;28;20305;-68
2023/05/11 04:06:37;;;;;;;5.30;2.67;;;;;;;9.20;100.00;100262.75;5038044;28;20239;-72
2023/05/11 04:09:03;;;;;;;4.10;2.30;;;;;;;9.18;100.00;100258.31;5041327;28;20228;-68
2023/05/11 04:11:30;;;;;;;5.80;2.50;;;;;;;9.34;100.00;100260.34;5041360;28;20246;-68
2023/05/11 04:13:58;;;;;;;4.00;2.77;;;;;;;9.26;100.00;100268.16;5043738;28;20195;-68
2023/05/11 04:16:25;;;;;;;3.43;2.47;;;;;;;9.21;100.00;100266.31;5048436;28;20223;-68
2023/05/11 04:18:51;;;;;;;7.70;2.80;;;;;;;9.32;100.00;100270.91;5039673;28;20549;-68
2023/05/11 04:21:17;;;;;;;4.93;2.77;;;;;;;9.38;100.00;100260.44;5046008;28;20473;-69
2023/05/11 04:23:44;;;;;;;5.93;3.43;;;;;;;9.45;100.00;100269.34;5042641;28;20597;-70
2023/05/11 04:26:10;;;;;;;5.73;2.40;;;;;;;9.47;100.00;100257.03;5039976;28;20194;-69
2023/05/11 04:28:36;;;;;;;4.97;2.60;;;;;;;9.48;100.00;100268.50;5045877;28;20272;-69
2023/05/11 04:31:03;;;;;;;4.03;2.87;;;;;;;9.58;100.00;100268.66;5041564;28;20246;-70
2023/05/11 04:33:30;;;;;;;5.93;2.70;;;;;;;9.55;100.00;100265.97;5036573;28;20243;-68
2023/05/11 04:35:57;;;;;;;5.40;3.00;;;;;;;9.57;100.00;100274.81;5047103;28;20246;-68
2023/05/11 04:38:23;;;;;;;4.00;2.67;;;;;;;9.66;100.00;100274.09;5040000;28;20631;-68
2023/05/11 04:40:50;;;;;;;5.77;2.80;;;;;;;9.69;100.00;100275.03;5078310;23;20246;-68
2023/05/11 04:43:17;;;;;;;4.50;2.70;;;;;;;9.80;100.00;100275.16;5066258;28;20218;-68
2023/05/11 04:45:50;;;;;;;5.13;2.97;;;;;;;9.91;100.00;100277.97;5060896;28;20248;-69
2023/05/11 04:48:16;;;;;;;4.73;2.80;;;;;;;9.97;100.00;100278.94;5065551;28;20244;-67
2023/05/11 04:50:46;;;;;;;2.77;2.30;;;;;;;10.08;100.00;100280.88;5060565;28;20220;-70
2023/05/11 04:53:12;;;;;;;4.43;2.90;;;;;;;10.15;100.00;100277.41;5044537;28;20217;-68
2023/05/11 04:55:39;;;;;;;4.13;2.40;;;;;;;10.26;100.00;100289.06;5062786;28;20728;-68
2023/05/11 04:58:05;;;;;;;4.47;2.60;;;;;;;10.40;100.00;100287.47;5058045;28;20617;-68
2023/05/11 05:00:31;;;;;;;4.17;2.67;;;;;;;10.52;100.00;100292.03;5050794;28;20750;-68
2023/05/11 05:02:58;;;;;;;4.67;2.50;;;;;;;10.72;100.00;100293.16;5057483;28;20246;-71
2023/05/11 05:05:24;;;;;;;4.83;2.83;;;;;;;10.84;100.00;100289.78;5054326;28;20258;-69
2023/05/11 05:07:50;;;;;;;3.80;2.50;;;;;;;11.01;100.00;100295.22;5066741;28;20197;-69
2023/05/11 05:10:17;;;;;;;3.20;2.40;;;;;;;11.14;100.00;100289.16;5060679;28;20211;-68
2023/05/11 05:12:44;;;;;;;3.53;2.50;;;;;;;11.36;100.00;100296.44;5055268;28;20253;-68
2023/05/11 05:15:11;;;;;;;3.97;2.40;;;;;;;11.45;100.00;100295.63;5058690;28;20225;-70
2023/05/11 05:17:37;;;;;;;5.87;2.40;;;;;;;11.53;100.00;100301.88;5065448;28;20203;-68
2023/05/11 05:20:05;;;;;;;4.00;2.53;;;;;;;11.61;100.00;100297.56;5059918;28;20232;-67
2023/05/11 05:22:32;;;;;;;4.30;2.10;;;;;;;11.70;100.00;100302.91;5042447;28;20741;-70
2023/05/11 05:24:59;;;;;;;3.70;2.10;;;;;;;11.74;100.00;100294.09;5046567;28;20298;-70
2023/05/11 05:27:26;;;;;;;3.10;1.93;;;;;;;11.72;100.00;100305.59;5051698;28;20725;-69
2023/05/11 05:29:52;;;;;;;5.93;2.57;;;;;;;11.70;100.00;100307.34;5044289;28;20614;-70
2023/05/11 05:32:19;;;;;;;2.60;2.40;;;;;;;11.78;100.00;100303.00;5056414;28;20234;-71
2023/05/11 05:34:48;;;;;;;3.67;2.60;;;;;;;11.77;100.00;100304.72;5065988;28;20198;-71
2023/05/11 05:37:14;;;;;;;4.03;2.37;;;;;;;11.77;100.00;100307.38;5069698;28;20661;-71
2023/05/11 05:39:40;;;;;;;3.30;2.60;;;;;;;11.89;100.00;100302.19;5066260;28;20227;-72
2023/05/11 05:42:07;;;;;;;4.57;2.63;;;;;;;11.87;100.00;100317.22;5054669;28;20204;-73
2023/05/11 05:44:33;;;;;;;3.27;2.40;;;;;;;11.81;100.00;100309.22;5067853;28;20274;-72
2023/05/11 05:46:59;;;;;;;4.00;2.50;;;;;;;11.84;100.00;100306.59;5057265;28;20617;-72
2023/05/11 05:49:26;;;;;;;7.40;2.67;;;;;;;11.88;100.00;100310.13;5058311;28;20199;-70
2023/05/11 05:51:53;;;;;;;4.43;2.50;;;;;;;11.95;100.00;100314.59;5043793;28;20240;-71
2023/05/11 05:54:19;;;;;;;5.20;2.80;;;;;;;11.99;100.00;100311.09;5056502;28;20609;-71
2023/05/11 05:56:46;;;;;;;4.83;2.40;;;;;;;12.11;100.00;100310.31;5059561;28;20251;-72
2023/05/11 05:59:13;;;;;;;5.13;2.47;;;;;;;12.18;100.00;100309.44;5058724;28;20221;-71
2023/05/11 06:01:43;;;;;;;3.83;2.90;;;;;;;12.31;100.00;100305.97;5070066;28;20224;-74
2023/05/11 06:04:09;;;;;;;6.83;3.00;;;;;;;12.57;100.00;100315.84;5068324;28;20217;-79
2023/05/11 06:06:36;;;;;;;4.73;2.70;;;;;;;12.70;100.00;100315.88;5044486;28;20204;-78
2023/05/11 06:09:02;;;;;;;4.93;2.87;;;;;;;12.73;100.00;100317.66;5055050;28;20204;-79
2023/05/11 06:11:28;;;;;;;5.20;2.67;;;;;;;12.83;100.00;100311.50;5065163;28;20260;-79
2023/05/11 06:13:55;;;;;;;4.27;2.20;;;;;;;12.99;99.54;100315.09;5060274;28;20198;-77
2023/05/11 06:16:21;;;;;;;3.93;2.50;;;;;;;13.15;98.32;100320.44;5051791;28;20201;-77
2023/05/11 06:18:48;;;;;;;5.07;2.67;;;;;;;13.22;97.85;100309.88;5070401;28;20201;-70
2023/05/11 06:21:14;;;;;;;3.87;2.80;;;;;;;13.48;97.21;100313.41;5049636;28;20264;-70
2023/05/11 06:23:41;;;;;;;3.60;2.53;;;;;;;13.69;96.09;100323.19;5035807;28;20211;-69
2023/05/11 06:26:07;;;;;;;5.17;3.00;;;;;;;13.92;93.94;100320.47;5070098;28;20198;-69
2023/05/11 06:28:33;;;;;;;5.00;2.80;;;;;;;14.00;93.07;100316.91;5054701;28;20204;-70
2023/05/11 06:31:02;;;;;;;5.23;2.90;;;;;;;13.77;93.29;100316.97;5069777;28;20225;-69
2023/05/11 06:33:29;;;;;;;3.93;2.83;;;;;;;13.90;93.71;100320.50;5060436;28;20285;-70
2023/05/11 06:35:55;;;;;;;4.53;2.97;;;;;;;14.03;93.52;100321.38;5066170;28;20194;-69
2023/05/11 06:38:21;;;;;;;4.27;2.70;;;;;;;14.21;93.38;100317.78;5069759;28;20194;-69
2023/05/11 06:40:52;;;;;;;6.27;2.87;;;;;;;14.37;91.66;100311.50;5062659;28;20225;-69
2023/05/11 06:43:18;;;;;;;3.23;2.50;;;;;;;14.36;91.42;100317.72;5062137;28;20583;-70
2023/05/11 06:45:45;;;;;;;5.00;2.50;;;;;;;14.59;91.30;100312.34;5062902;28;20414;-69
2023/05/11 06:48:11;;;;;;;5.07;2.63;;;;;;;14.73;89.95;100315.84;5046700;28;20199;-68
2023/05/11 06:50:38;;;;;;;4.90;2.60;;;;;;;14.93;88.49;100316.63;5035083;28;20218;-71
2023/05/11 06:53:04;;;;;;;3.43;2.53;;;;;;;15.17;86.06;100314.69;5050369;28;20195;-70
2023/05/11 06:55:31;;;;;;;3.13;2.00;;;;;;;15.30;85.92;100314.63;5053135;28;20202;-70
2023/05/11 06:57:57;;;;;;;4.20;2.60;;;;;;;15.29;85.92;100315.53;5056072;28;20205;-70
2023/05/11 07:00:24;;;;;;;3.60;2.20;;;;;;;15.41;85.71;100316.31;5068526;28;20220;-69
2023/05/11 07:02:50;;;;;;;4.23;2.77;;;;;;;15.16;85.89;100310.25;5066869;28;20582;-70
2023/05/11 07:05:17;;;;;;;3.67;2.40;;;;;;;15.35;86.24;100312.81;5052498;28;20293;-71
2023/05/11 07:07:43;;;;;;;2.77;2.40;;;;;;;15.57;84.96;100315.28;5050405;28;20202;-70
2023/05/11 07:10:09;;;;;;;5.33;2.50;;;;;;;15.57;84.65;100318.84;5042056;28;20269;-71
2023/05/11 07:12:36;;;;;;;4.53;2.50;;;;;;;15.62;83.98;100316.22;5060641;28;20349;-70
2023/05/11 07:15:03;;;;;;;6.90;2.37;;;;;;;15.66;83.24;100312.59;5052478;28;20671;-70
2023/05/11 07:17:29;;;;;;;5.13;2.43;;;;;;;15.77;83.58;100325.84;5051918;28;20275;-70
2023/05/11 07:19:55;;;;;;;5.03;2.23;;;;;;;15.85;83.27;100316.88;5060487;28;20301;-69
2023/05/11 07:22:22;;;;;;;3.43;2.60;;;;;;;15.96;82.19;100316.75;5046432;28;20634;-69
2023/05/11 07:24:48;;;;;;;3.73;2.30;;;;;;;15.95;82.52;100315.88;5063391;28;20260;-70
2023/05/11 07:27:14;;;;;;;4.20;2.20;;;;;;;16.04;81.81;100319.38;5061434;28;20233;-70
2023/05/11 07:29:41;;;;;;;3.70;2.33;;;;;;;16.01;81.64;100324.72;5072236;28;20206;-69
2023/05/11 07:32:07;;;;;;;3.80;2.53;;;;;;;15.97;82.25;100319.41;5057339;28;20314;-68
2023/05/11 07:34:33;;;;;;;4.27;2.90;;;;;;;15.99;82.75;100320.28;5040115;28;20273;-69
2023/05/11 07:37:00;;;;;;;4.43;2.43;;;;;;;15.95;80.59;100317.66;5066676;28;20194;-67
2023/05/11 07:39:26;;;;;;;4.57;2.57;;;;;;;16.15;80.74;100317.47;5062217;28;20285;-69
2023/05/11 07:41:53;;;;;;;4.17;2.67;;;;;;;15.85;81.14;100319.53;5060909;28;20660;-68
2023/05/11 07:44:22;;;;;;;4.13;2.53;;;;;;;16.08;81.56;100311.31;5062896;28;20211;-69
2023/05/11 07:46:48;;;;;;;4.17;2.67;;;;;;;15.93;80.12;100322.13;5048821;28;20202;-68
2023/05/11 07:49:15;;;;;;;3.00;2.40;;;;;;;15.78;80.94;100320.50;5028091;28;20667;-69
2023/05/11 07:51:51;;;;;;;5.07;2.57;;;;;;;15.81;80.26;100314.25;5048174;28;20224;-69
2023/05/11 07:54:17;;;;;;;2.83;2.30;;;;;;;15.55;82.02;100320.66;5033280;28;20218;-69
2023/05/11 07:56:46;;;;;;;3.27;2.50;;;;;;;15.26;83.49;100320.88;5048177;28;20203;-68
2023/05/11 07:59:13;;;;;;;2.63;2.23;;;;;;;15.45;82.19;100318.06;5050727;28;20229;-72
2023/05/11 08:01:39;;;;;;;3.53;2.60;;;;;;;15.49;81.27;100320.69;5050251;28;20223;-69
2023/05/11 08:04:06;;;;;;;3.10;2.60;;;;;;;15.71;80.53;100318.78;5048894;28;20314;-68
2023/05/11 08:06:32;;;;;;;3.70;2.50;;;;;;;15.70;80.14;100325.03;5045457;28;20253;-72
2023/05/11 08:08:59;;;;;;;4.03;2.50;;;;;;;15.91;79.46;100321.25;5050251;28;20209;-72
2023/05/11 08:11:26;;;;;;;4.37;3.03;;;;;;;16.03;78.69;100322.94;5032275;28;20250;-71
2023/05/11 08:13:52;;;;;;;3.10;2.60;;;;;;;16.26;78.44;100313.78;5044601;28;20210;-70
2023/05/11 08:16:19;;;;;;;3.40;2.70;;;;;;;16.39;76.09;100317.19;5050459;28;20214;-70
2023/05/11 08:18:45;;;;;;;2.93;2.50;;;;;;;16.30;76.80;100319.97;5046926;28;20204;-68
2023/05/11 08:21:12;;;;;;;3.57;2.83;;;;;;;16.37;76.71;100323.47;5044868;28;20216;-70
2023/05/11 08:23:39;;;;;;;3.70;2.60;;;;;;;16.49;75.67;100320.66;5052900;28;20199;-70
2023/05/11 08:26:05;;;;;;;3.63;2.67;;;;;;;16.68;75.48;100326.69;5050944;28;20749;-70
2023/05/11 08:28:32;;;;;;;3.87;2.80;;;;;;;16.75;76.37;100325.72;5054206;28;20203;-70
2023/05/11 08:30:59;;;;;;;5.83;2.87;;;;;;;16.87;75.06;100325.56;5048127;28;20223;-70
2023/05/11 08:33:26;;;;;;;3.93;2.97;;;;;;;17.18;74.80;100317.97;5044082;28;20217;-70
2023/05/11 08:36:04;;;;;;;3.70;2.80;;;;;;;17.03;74.76;100323.56;5047744;28;20252;-70
2023/05/11 08:38:31;;;;;;;4.40;2.90;;;;;;;17.15;72.93;100326.06;5038295;28;20261;-69
2023/05/11 08:40:58;;;;;;;5.53;2.57;;;;;;;17.10;74.38;100325.25;5031854;28;20231;-69
2023/05/11 08:43:25;;;;;;;4.70;2.50;;;;;;;17.39;72.74;100317.66;5050211;28;20626;-70
2023/05/11 08:45:59;;;;;;;3.77;2.43;;;;;;;17.48;73.26;100324.66;5048617;28;20272;-69
2023/05/11 08:48:26;;;;;;;3.37;2.90;;;;;;;17.52;71.66;100324.59;5037491;28;20641;-70
2023/05/11 08:50:52;;;;;;;9.90;2.73;;;;;;;17.70;70.61;100320.78;5042025;28;20302;-71
2023/05/11 08:53:18;;;;;;;4.33;2.70;;;;;;;17.83;70.35;100319.66;5037856;28;20199;-70
2023/05/11 08:55:46;;;;;;;3.40;2.70;;;;;;;17.90;69.40;100327.56;5037277;28;20241;-70
2023/05/11 08:58:19;;;;;;;4.57;2.40;;;;;;;18.19;69.08;100327.94;5040608;28;20214;-70
2023/05/11 09:00:47;;;;;;;4.50;2.53;;;;;;;18.47;68.08;100331.88;5038114;28;20594;-71
2023/05/11 09:03:18;;;;;;;3.10;2.80;;;;;;;18.38;66.86;100323.97;5019909;28;20203;-69
2023/05/11 09:05:46;;;;;;;4.13;2.50;;;;;;;18.80;66.27;100329.41;5039081;28;20376;-69
2023/05/11 09:08:14;;;;;;;4.37;2.70;;;;;;;18.59;66.56;100328.06;5040504;28;20221;-70
2023/05/11 09:10:42;;;;;;;3.27;2.80;;;;;;;18.81;65.67;100327.63;5040940;28;20214;-69
2023/05/11 09:13:09;;;;;;;2.93;2.67;;;;;;;19.10;65.23;100327.88;5023811;28;20694;-70
2023/05/11 09:15:36;;;;;;;4.07;2.30;;;;;;;19.32;65.08;100323.81;5035021;28;20246;-70
2023/05/11 09:18:04;;;;;;;3.93;2.90;;;;;;;19.96;63.27;100327.59;5039905;28;20195;-70
2023/05/11 09:20:32;;;;;;;2.90;2.60;;;;;;;20.23;60.96;100319.72;5039791;28;20223;-70
2023/05/11 09:22:59;;;;;;;3.30;2.65;;;;;;;19.77;62.09;100322.75;5039410;28;20191;-70
2023/05/11 09:25:29;;;;;;;3.80;2.90;;;;;;;19.29;63.06;100314.94;5039456;28;20218;-69
2023/05/11 09:27:58;;;;;;;3.37;2.83;;;;;;;19.18;64.36;100325.91;5039262;28;20203;-71
2023/05/11 09:30:26;;;;;;;3.65;2.45;;;;;;;19.17;63.47;100325.94;5035502;28;20219;-70
2023/05/11 09:32:58;;;;;;;5.10;3.00;;;;;;;19.05;64.25;100327.97;5026535;28;20195;-70
2023/05/11 09:35:32;;;;;;;4.20;2.50;;;;;;;18.84;64.72;100317.75;5038635;28;20195;-70
2023/05/11 09:38:07;;;;;;;3.50;2.73;;;;;;;18.79;64.64;100322.28;5041270;28;20198;-71
2023/05/11 09:40:48;;;;;;;3.90;2.93;;;;;;;18.68;64.93;100313.59;5035062;28;20230;-70
2023/05/11 09:43:20;;;;;;;4.10;2.60;;;;;;;18.63;64.84;100324.41;5037138;28;20697;-69
2023/05/11 09:45:48;;;;;;;4.03;3.00;;;;;;;18.82;64.79;100322.25;5050142;28;20717;-70
2023/05/11 09:48:15;;;;;;;3.30;2.57;;;;;;;19.14;64.33;100320.63;5034755;28;20200;-71
2023/05/11 09:50:42;;;;;;;4.20;2.57;;;;;;;19.55;62.71;100319.69;5042898;28;20249;-70
2023/05/11 09:53:08;;;;;;;3.23;2.63;;;;;;;19.42;62.00;100314.59;5030762;28;20256;-71
2023/05/11 09:55:35;;;;;;;4.50;2.87;;;;;;;19.11;62.67;100329.66;5042233;28;20479;-71
2023/05/11 09:58:03;;;;;;;2.83;2.40;;;;;;;19.05;62.06;100325.31;5029947;28;20611;-71
2023/05/11 10:00:30;;;;;;;4.50;2.77;;;;;;;19.02;62.77;100324.50;5045558;28;20256;-70
2023/05/11 10:03:00;;;;;;;3.27;2.60;;;;;;;19.39;61.32;100319.16;5042227;28;20691;-70
2023/05/11 10:05:27;;;;;;;2.77;2.47;;;;;;;19.49;59.88;100311.75;5035053;28;20222;-72
2023/05/11 10:07:59;;;;;;;3.37;2.40;;;;;;;19.76;60.22;100321.88;5046649;28;20199;-71
2023/05/11 10:10:29;;;;;;;3.08;2.40;;;;;;;19.94;59.13;100317.81;5023835;28;20707;-71
2023/05/11 10:13:00;;;;;;;2.47;2.25;;;;;;;19.85;58.04;100313.56;5022953;28;20200;-72
2023/05/11 10:15:29;;;;;;;4.60;2.10;;;;;;;20.16;57.79;100310.06;5046747;28;20234;-72
2023/05/11 10:17:58;;;;;;;2.30;2.10;;;;;;;20.34;57.72;100307.75;5042591;28;20203;-71
2023/05/11 10:20:25;;;;;;;2.40;2.15;;;;;;;20.40;57.87;100316.59;5042786;28;20233;-69
2023/05/11 10:22:53;;;;;;;3.38;2.40;;;;;;;20.77;54.89;100306.53;5029938;28;20200;-71
2023/05/11 10:25:25;;;;;;;3.55;2.20;;;;;;;21.01;52.95;100312.13;5024442;28;20306;-73
2023/05/11 10:27:52;;;;;;;2.15;1.95;;;;;;;21.22;51.28;100309.66;5047192;28;20199;-73
2023/05/11 10:30:19;;;;;;;2.72;2.35;;;;;;;21.37;51.45;100308.31;5039651;28;20715;-71
2023/05/11 10:32:46;;;;;;;3.72;2.05;;;;;;;21.45;51.65;100302.69;5038152;28;20337;-70
2023/05/11 10:35:13;;;;;;;3.92;2.13;;;;;;;21.36;52.32;100305.69;5031209;28;20721;-70
2023/05/11 10:37:41;;;;;;;2.75;2.35;;;;;;;21.41;51.20;100301.91;5044176;28;20655;-71
2023/05/11 10:40:09;;;;;;;2.30;2.05;;;;;;;21.12;51.04;100297.41;5050530;22;20225;-68
2023/05/11 10:42:44;;;;;;;3.00;2.42;;;;;;;20.87;52.33;100301.78;5040361;28;20232;-70
2023/05/11 10:45:35;;;;;;;2.28;2.05;;;;;;;20.49;53.53;100303.78;5050372;28;20217;-70
2023/05/11 10:48:26;;;;;;;2.67;2.20;;;;;;;19.88;54.65;100304.53;5042681;28;20737;-71
2023/05/11 10:51:11;;;;;;;2.70;2.20;;;;;;;20.47;54.41;100297.59;5047583;28;20261;-71
2023/05/11 10:54:03;;;;;;;2.60;2.30;;;;;;;20.80;51.58;100290.31;5043771;28;20205;-72
2023/05/11 10:56:38;;;;;;;3.20;2.10;;;;;;;20.53;52.72;100294.72;5041548;28;20192;-71
2023/05/11 10:59:23;;;;;;;2.78;2.35;;;;;;;19.86;54.24;100298.31;5044293;28;20191;-70
2023/05/11 11:01:53;;;;;;;2.78;2.50;;;;;;;20.01;54.19;100290.75;5041827;28;20246;-71
2023/05/11 11:04:20;;;;;;;3.28;2.30;;;;;;;20.12;54.61;100298.53;5044731;28;20199;-70
2023/05/11 11:06:46;;;;;;;3.40;2.50;;;;;;;20.19;55.31;100305.50;5049579;28;20195;-71
2023/05/11 11:09:14;;;;;;;4.15;2.67;;;;;;;20.22;53.78;100291.97;5038106;28;20215;-73
2023/05/11 11:11:46;;;;;;;3.30;2.53;;;;;;;20.43;52.83;100301.28;5044284;28;20214;-71
2023/05/11 11:14:15;;;;;;;4.35;2.40;;;;;;;20.51;54.42;100293.00;5039062;28;20203;-73
2023/05/11 11:17:33;;;;;;;2.75;2.45;;;;;;;20.48;52.61;100291.28;5040949;28;20282;-71
2023/05/11 11:20:03;;;;;;;3.55;2.03;;;;;;;20.49;53.41;100294.84;5013926;28;20636;-71
2023/05/11 11:22:35;;;;;;;3.97;2.47;;;;;;;20.16;53.61;100296.63;5043783;28;20225;-70
2023/05/11 11:25:05;;;;;;;2.67;2.30;;;;;;;20.03;53.58;100296.97;5034908;28;20246;-71
2023/05/11 11:27:52;;;;;;;4.28;2.45;;;;;;;19.51;56.86;100291.13;5047220;28;20242;-70
2023/05/11 11:30:22;;;;;;;2.65;2.45;;;;;;;19.81;57.00;100295.75;5040273;28;20222;-70
2023/05/11 11:32:51;;;;;;;2.85;2.22;;;;;;;19.93;55.70;100281.97;5021925;28;20649;-71